Time;durP1;ratioP1;P1;durP2;ratioP2;P2;SDS_P1;SDS_P2;PMS_P1;PMS_P2;Temp;Humidity;BMP_temperature;BMP_pressure;BME280_temperature;BME280_humidity;BME280_pressure;Samples;Min_cycle;Max_cycle;Signal;HPM_P1;HPM_P2
2022/09/08 00:00:41;;;;;;;20.88;17.17;;;18.30;99.90;;;;;;5100737;28;20043;-51
2022/09/08 00:03:11;;;;;;;28.48;19.15;;;18.30;99.90;;;;;;5085878;28;20020;-51
2022/09/08 00:05:57;;;;;;;39.20;18.13;;;18.40;99.90;;;;;;5072295;28;20020;-49
2022/09/08 00:08:24;;;;;;;24.65;16.48;;;18.40;99.90;;;;;;5072129;28;20124;-50
2022/09/08 00:10:55;;;;;;;27.08;17.42;;;18.30;99.90;;;;;;5072521;28;20483;-51
2022/09/08 00:13:22;;;;;;;21.63;17.67;;;18.30;99.90;;;;;;5072454;28;20024;-52
2022/09/08 00:15:49;;;;;;;24.80;18.17;;;18.30;99.90;;;;;;5072472;28;20048;-51
2022/09/08 00:18:15;;;;;;;23.67;17.98;;;18.40;99.90;;;;;;5072366;28;20096;-52
2022/09/08 00:20:41;;;;;;;24.50;18.70;;;18.40;99.90;;;;;;5080636;28;20036;-52
2022/09/08 00:23:07;;;;;;;21.65;18.25;;;18.30;99.90;;;;;;5092164;28;20027;-51
2022/09/08 00:25:48;;;;;;;28.35;19.55;;;18.30;99.90;;;;;;5090340;28;20107;-53
2022/09/08 00:28:14;;;;;;;21.15;17.98;;;18.40;99.90;;;;;;5072312;28;20499;-51
2022/09/08 00:30:40;;;;;;;24.42;18.90;;;18.50;99.90;;;;;;5084561;28;20056;-51
2022/09/08 00:33:06;;;;;;;22.95;18.88;;;18.50;99.90;;;;;;5076620;28;20490;-53
2022/09/08 00:35:31;;;;;;;20.42;18.23;;;18.50;99.90;;;;;;5071856;28;20039;-49
2022/09/08 00:37:57;;;;;;;29.90;19.20;;;18.50;99.90;;;;;;5072043;28;20028;-53
2022/09/08 00:40:25;;;;;;;23.85;18.38;;;18.50;99.90;;;;;;5070579;28;20035;-53
2022/09/08 00:43:04;;;;;;;28.95;18.55;;;18.50;99.90;;;;;;5091381;28;20027;-52
2022/09/08 00:45:41;;;;;;;22.15;18.45;;;18.50;99.90;;;;;;5090019;28;20608;-51
2022/09/08 00:48:15;;;;;;;30.63;18.67;;;18.60;99.90;;;;;;5090519;28;20028;-53
2022/09/08 00:50:41;;;;;;;21.23;18.02;;;18.60;99.90;;;;;;5091985;28;20038;-51
2022/09/08 00:53:11;;;;;;;21.17;17.38;;;18.50;99.90;;;;;;5075786;28;20032;-52
2022/09/08 00:55:38;;;;;;;29.98;17.70;;;18.50;99.90;;;;;;5080145;28;20055;-50
2022/09/08 00:58:04;;;;;;;25.48;18.33;;;18.50;99.90;;;;;;5088347;28;20028;-54
2022/09/08 01:00:31;;;;;;;29.23;21.08;;;18.50;99.90;;;;;;5071599;28;20020;-51
2022/09/08 01:02:57;;;;;;;27.85;19.35;;;18.40;99.90;;;;;;5076367;28;20085;-51
2022/09/08 01:05:30;;;;;;;22.63;18.98;;;18.40;99.90;;;;;;5091033;28;20040;-52
2022/09/08 01:14:10;;;;;;;29.90;19.17;;;18.30;99.90;;;;;;5053513;28;20041;-52
2022/09/08 01:16:40;;;;;;;21.35;19.08;;;18.20;99.90;;;;;;5091280;28;20039;-54
2022/09/08 01:19:30;;;;;;;24.15;19.02;;;18.20;99.90;;;;;;5091675;28;20441;-51
2022/09/08 01:22:27;;;;;;;26.38;19.55;;;18.20;99.90;;;;;;5088590;28;20028;-51
2022/09/08 01:25:30;;;;;;;29.95;19.75;;;18.20;99.90;;;;;;5091501;28;20023;-51
2022/09/08 01:28:21;;;;;;;27.98;19.98;;;18.20;99.90;;;;;;5074023;28;20107;-49
2022/09/08 01:30:47;;;;;;;30.90;20.25;;;18.10;99.90;;;;;;5071267;28;20665;-52
2022/09/08 01:33:14;;;;;;;27.17;22.00;;;18.10;99.90;;;;;;5072442;28;20515;-52
2022/09/08 01:35:41;;;;;;;24.75;21.00;;;18.10;99.90;;;;;;5081480;28;20032;-51
2022/09/08 01:38:08;;;;;;;21.17;18.85;;;18.10;99.90;;;;;;5091213;28;20028;-51
2022/09/08 01:40:35;;;;;;;33.42;20.83;;;18.10;99.90;;;;;;5091203;28;20039;-53
2022/09/08 01:43:00;;;;;;;29.15;19.48;;;18.10;99.90;;;;;;5090473;28;20089;-54
2022/09/08 01:45:27;;;;;;;31.40;21.70;;;18.10;99.90;;;;;;5090892;28;20107;-52
2022/09/08 01:47:54;;;;;;;26.27;20.30;;;18.10;99.90;;;;;;5091138;28;20111;-55
2022/09/08 01:50:20;;;;;;;28.17;20.20;;;18.00;99.90;;;;;;5091256;28;20026;-52
2022/09/08 01:52:46;;;;;;;33.40;21.50;;;17.90;99.90;;;;;;5089528;28;20029;-52
2022/09/08 01:55:12;;;;;;;29.00;22.92;;;17.90;99.90;;;;;;5092029;28;20042;-53
2022/09/08 01:57:38;;;;;;;26.95;21.48;;;17.80;99.90;;;;;;5086727;28;20063;-53
2022/09/08 02:00:05;;;;;;;32.03;22.65;;;17.80;99.90;;;;;;5077092;28;20056;-54
2022/09/08 02:02:31;;;;;;;27.83;20.70;;;17.80;99.90;;;;;;5093430;28;20050;-54
2022/09/08 02:04:57;;;;;;;27.05;20.60;;;17.80;99.90;;;;;;5076469;28;20029;-53
2022/09/08 02:07:23;;;;;;;24.98;21.15;;;17.80;99.90;;;;;;5094719;28;20529;-50
2022/09/08 02:09:48;;;;;;;24.08;20.27;;;17.70;99.90;;;;;;5094860;28;20034;-52
2022/09/08 02:12:14;;;;;;;29.80;20.13;;;17.70;99.90;;;;;;5093428;28;20032;-53
2022/09/08 02:14:40;;;;;;;32.80;20.60;;;17.70;99.90;;;;;;5094072;28;20040;-53
2022/09/08 02:17:06;;;;;;;26.08;19.10;;;17.60;99.90;;;;;;5094597;28;20055;-52
2022/09/08 02:19:31;;;;;;;24.17;18.13;;;17.60;99.90;;;;;;5076907;28;20062;-53
2022/09/08 02:21:57;;;;;;;26.27;20.55;;;17.60;99.90;;;;;;5076689;28;20426;-51
2022/09/08 02:24:22;;;;;;;28.77;20.45;;;17.50;99.90;;;;;;5085407;28;20064;-52
2022/09/08 02:26:48;;;;;;;27.95;21.02;;;17.40;99.90;;;;;;5081433;28;20039;-54
2022/09/08 02:29:15;;;;;;;29.73;18.95;;;17.30;99.90;;;;;;5085069;28;20063;-50
2022/09/08 02:31:41;;;;;;;23.38;20.40;;;17.20;99.90;;;;;;5087123;28;20528;-53
2022/09/08 02:34:08;;;;;;;24.25;21.35;;;17.20;99.90;;;;;;5093003;28;20032;-51
2022/09/08 02:36:34;;;;;;;31.88;20.67;;;17.20;99.90;;;;;;5085812;28;20025;-51
2022/09/08 02:39:00;;;;;;;28.67;21.40;;;17.20;99.90;;;;;;5075580;28;20369;-52
2022/09/08 02:41:27;;;;;;;29.02;23.52;;;17.10;99.90;;;;;;5075159;28;20033;-53
2022/09/08 02:43:53;;;;;;;24.50;20.17;;;17.10;99.90;;;;;;5074166;28;20024;-51
2022/09/08 02:46:19;;;;;;;29.58;21.02;;;17.10;99.90;;;;;;5083808;28;20436;-52
2022/09/08 02:48:45;;;;;;;28.70;21.02;;;17.10;99.90;;;;;;5094229;28;20123;-52
2022/09/08 02:51:14;;;;;;;30.55;21.65;;;17.00;99.90;;;;;;5093768;28;20080;-51
2022/09/08 02:53:41;;;;;;;31.17;20.92;;;17.10;99.90;;;;;;5066052;28;20586;-52
2022/09/08 02:56:08;;;;;;;26.95;19.55;;;17.10;99.90;;;;;;5074045;28;20036;-53
2022/09/08 02:58:34;;;;;;;26.83;18.83;;;17.00;99.90;;;;;;5077356;28;20067;-52
2022/09/08 03:01:00;;;;;;;32.92;21.20;;;17.10;99.90;;;;;;5077162;28;20463;-50
2022/09/08 03:03:26;;;;;;;26.27;21.05;;;17.00;99.90;;;;;;5085448;28;20034;-52
2022/09/08 03:05:52;;;;;;;28.65;20.95;;;17.10;99.90;;;;;;5073832;28;20020;-51
2022/09/08 03:08:20;;;;;;;30.77;21.33;;;17.10;99.90;;;;;;5091517;28;20490;-50
2022/09/08 03:10:48;;;;;;;27.15;22.33;;;17.10;99.90;;;;;;5094030;28;20093;-52
2022/09/08 03:13:14;;;;;;;27.52;22.48;;;17.10;99.90;;;;;;5093115;28;20024;-55
2022/09/08 03:15:41;;;;;;;32.75;21.88;;;17.10;99.90;;;;;;5093089;28;20524;-51
2022/09/08 03:18:07;;;;;;;27.08;22.65;;;17.20;99.90;;;;;;5093233;28;20032;-53
2022/09/08 03:20:34;;;;;;;25.85;22.15;;;17.30;99.90;;;;;;5093510;28;20104;-55
2022/09/08 03:23:01;;;;;;;32.33;23.35;;;17.40;99.90;;;;;;5090238;28;20032;-53
2022/09/08 03:25:28;;;;;;;30.85;21.48;;;17.50;99.90;;;;;;5093289;28;20111;-51
2022/09/08 03:27:54;;;;;;;25.67;22.33;;;17.40;99.90;;;;;;5091874;28;20039;-50
2022/09/08 03:30:20;;;;;;;32.15;22.45;;;17.40;99.90;;;;;;5093253;28;20026;-53
2022/09/08 03:32:46;;;;;;;26.58;21.48;;;17.30;99.90;;;;;;5089251;28;20040;-54
2022/09/08 03:35:15;;;;;;;27.40;22.45;;;17.30;99.90;;;;;;5073191;28;20523;-52
2022/09/08 03:37:41;;;;;;;27.58;20.55;;;17.20;99.90;;;;;;5083433;28;20039;-53
2022/09/08 03:40:10;;;;;;;26.42;21.33;;;17.30;99.90;;;;;;5092955;28;20035;-50
2022/09/08 03:42:38;;;;;;;24.98;17.98;;;17.40;99.90;;;;;;5092832;28;20043;-51
2022/09/08 03:45:07;;;;;;;24.55;18.45;;;17.40;99.90;;;;;;5093275;28;20543;-53
2022/09/08 03:47:33;;;;;;;23.58;18.17;;;17.50;99.90;;;;;;5092624;28;20036;-53
2022/09/08 03:49:59;;;;;;;20.83;15.93;;;17.50;99.90;;;;;;5052904;28;20013;-54
2022/09/08 03:52:26;;;;;;;22.83;17.00;;;17.60;99.90;;;;;;5061986;28;20032;-54
2022/09/08 03:54:52;;;;;;;20.50;16.27;;;17.60;99.90;;;;;;5073901;28;20525;-52
2022/09/08 03:57:21;;;;;;;26.80;15.15;;;17.60;99.90;;;;;;5072983;28;20064;-55
2022/09/08 03:59:49;;;;;;;16.35;12.52;;;17.70;99.90;;;;;;5072927;28;20052;-54
2022/09/08 04:02:16;;;;;;;13.23;11.52;;;17.70;99.90;;;;;;5075657;28;20391;-51
2022/09/08 04:04:42;;;;;;;18.40;13.75;;;17.60;99.90;;;;;;5073517;28;20082;-53
2022/09/08 04:07:09;;;;;;;14.90;13.18;;;17.60;99.90;;;;;;5073842;28;20068;-51
2022/09/08 04:09:36;;;;;;;11.15;9.57;;;17.60;99.90;;;;;;5073631;28;20037;-49
2022/09/08 04:12:02;;;;;;;12.23;10.13;;;17.60;99.90;;;;;;5092164;28;20141;-50
2022/09/08 04:14:27;;;;;;;17.17;9.00;;;17.60;99.90;;;;;;5092711;28;20039;-53
2022/09/08 04:16:53;;;;;;;19.08;11.85;;;17.50;99.90;;;;;;5092386;28;20032;-52
2022/09/08 04:19:19;;;;;;;16.15;12.63;;;17.40;99.90;;;;;;5089540;28;20379;-52
2022/09/08 04:21:44;;;;;;;21.35;15.00;;;17.40;99.90;;;;;;5089750;28;20070;-55
2022/09/08 04:24:10;;;;;;;17.92;13.10;;;17.20;99.90;;;;;;5075220;28;20032;-51
2022/09/08 04:26:36;;;;;;;19.95;14.02;;;17.10;99.90;;;;;;5089260;28;20024;-51
2022/09/08 04:29:03;;;;;;;35.40;15.65;;;16.90;99.90;;;;;;5075969;28;20024;-51
2022/09/08 04:31:29;;;;;;;19.55;14.82;;;16.90;99.90;;;;;;5089281;28;20012;-51
2022/09/08 04:33:56;;;;;;;19.05;9.95;;;16.80;99.90;;;;;;5078381;28;20028;-51
2022/09/08 04:36:23;;;;;;;12.45;8.52;;;16.80;99.90;;;;;;5070549;28;20103;-53
2022/09/08 04:38:49;;;;;;;10.13;8.23;;;16.90;99.90;;;;;;5074722;28;20063;-52
2022/09/08 04:41:17;;;;;;;12.68;7.95;;;16.80;99.90;;;;;;5090744;28;20021;-51
2022/09/08 04:43:42;;;;;;;10.02;8.68;;;16.80;99.90;;;;;;5090595;28;20117;-50
2022/09/08 04:46:13;;;;;;;9.93;7.60;;;16.80;99.90;;;;;;5090846;28;20364;-52
2022/09/08 04:48:40;;;;;;;10.10;6.47;;;16.90;99.90;;;;;;5090117;28;20032;-49
2022/09/08 04:51:08;;;;;;;8.68;6.20;;;17.00;99.90;;;;;;5090450;28;20023;-52
2022/09/08 04:53:38;;;;;;;13.50;6.68;;;17.00;99.90;;;;;;5090308;28;20501;-51
2022/09/08 04:56:05;;;;;;;12.70;7.57;;;16.90;99.90;;;;;;5090710;28;20020;-52
2022/09/08 04:58:33;;;;;;;11.50;7.97;;;16.90;99.90;;;;;;5089022;28;20234;-52
2022/09/08 05:01:07;;;;;;;12.35;6.43;;;16.90;99.90;;;;;;5076433;28;20033;-51
2022/09/08 05:03:33;;;;;;;9.75;6.35;;;17.00;99.90;;;;;;5079263;28;20024;-51
2022/09/08 05:06:13;;;;;;;14.50;7.20;;;17.10;99.90;;;;;;5086178;28;20020;-52
2022/09/08 05:08:42;;;;;;;9.00;6.70;;;17.10;99.90;;;;;;5068505;28;20835;-51
2022/09/08 05:11:09;;;;;;;11.50;6.00;;;17.10;99.90;;;;;;5082743;28;20020;-50
2022/09/08 05:13:34;;;;;;;13.52;6.25;;;17.20;99.90;;;;;;5089949;28;20028;-51
2022/09/08 05:16:06;;;;;;;10.77;5.78;;;17.20;99.90;;;;;;5090061;28;20067;-53
2022/09/08 05:18:32;;;;;;;9.90;5.55;;;17.30;99.90;;;;;;5090122;28;20055;-51
2022/09/08 05:20:59;;;;;;;16.27;6.10;;;17.40;99.90;;;;;;5088661;28;20522;-49
2022/09/08 05:23:25;;;;;;;15.88;6.05;;;17.50;99.90;;;;;;5090189;28;20051;-51
2022/09/08 05:26:00;;;;;;;14.02;6.07;;;17.70;99.90;;;;;;5090199;28;20024;-51
2022/09/08 05:28:28;;;;;;;16.10;6.25;;;17.80;99.90;;;;;;5076156;28;20059;-51
2022/09/08 05:30:54;;;;;;;9.82;6.50;;;17.80;99.90;;;;;;5074298;28;20021;-50
2022/09/08 05:33:21;;;;;;;8.00;6.78;;;17.90;99.90;;;;;;5077820;28;20033;-49
2022/09/08 05:35:47;;;;;;;8.25;6.90;;;18.00;99.90;;;;;;5077130;28;20033;-50
2022/09/08 05:38:13;;;;;;;14.27;7.20;;;18.00;99.90;;;;;;5095150;28;20387;-50
2022/09/08 05:40:39;;;;;;;14.70;5.70;;;18.10;99.90;;;;;;5092591;28;20032;-52
2022/09/08 05:43:05;;;;;;;8.88;5.95;;;18.10;99.90;;;;;;5076573;28;20029;-49
2022/09/08 05:45:30;;;;;;;14.60;6.72;;;18.10;99.90;;;;;;5076553;28;20393;-49
2022/09/08 05:47:56;;;;;;;13.40;7.10;;;18.20;99.90;;;;;;5076500;28;20031;-50
2022/09/08 05:50:22;;;;;;;9.32;5.75;;;18.20;99.90;;;;;;5082881;28;20393;-52
2022/09/08 05:52:47;;;;;;;11.85;6.03;;;18.20;99.90;;;;;;5096595;28;20435;-51
2022/09/08 05:55:14;;;;;;;13.30;6.15;;;18.30;99.90;;;;;;5084214;28;20028;-52
2022/09/08 05:57:40;;;;;;;10.77;7.00;;;18.40;99.90;;;;;;5075977;28;20492;-52
2022/09/08 06:00:07;;;;;;;8.07;5.88;;;18.50;99.90;;;;;;5076103;28;20044;-51
2022/09/08 06:02:33;;;;;;;16.17;7.00;;;18.50;99.90;;;;;;5082295;28;20016;-50
2022/09/08 06:04:59;;;;;;;14.23;7.15;;;18.50;99.90;;;;;;5096277;28;20028;-53
2022/09/08 06:07:25;;;;;;;16.13;6.97;;;18.50;99.90;;;;;;5096259;28;20047;-51
2022/09/08 06:09:52;;;;;;;13.35;6.78;;;18.50;99.90;;;;;;5096345;28;20035;-54
2022/09/08 06:12:18;;;;;;;11.10;6.20;;;18.60;99.90;;;;;;5089780;28;20031;-53
2022/09/08 06:14:45;;;;;;;11.13;6.72;;;18.50;99.90;;;;;;5094485;28;20051;-51
2022/09/08 06:17:11;;;;;;;20.52;8.20;;;18.50;99.90;;;;;;5096331;28;20483;-54
2022/09/08 06:19:37;;;;;;;7.97;6.60;;;18.50;99.90;;;;;;5094843;28;20062;-54
2022/09/08 06:22:03;;;;;;;12.18;7.05;;;18.50;99.90;;;;;;5095310;28;20036;-49
2022/09/08 06:24:29;;;;;;;19.05;7.80;;;18.50;99.90;;;;;;5090215;28;20020;-51
2022/09/08 06:26:58;;;;;;;12.18;6.82;;;18.40;99.90;;;;;;5076117;28;20034;-50
2022/09/08 06:29:24;;;;;;;12.50;8.40;;;18.40;99.90;;;;;;5076145;28;20016;-51
2022/09/08 06:32:07;;;;;;;24.50;8.88;;;18.40;99.90;;;;;;5088571;28;20119;-51
2022/09/08 06:34:43;;;;;;;11.23;6.88;;;18.40;99.90;;;;;;5075935;28;20033;-50
2022/09/08 06:37:27;;;;;;;9.02;7.82;;;18.40;99.90;;;;;;5076229;28;20519;-51
2022/09/08 06:40:05;;;;;;;11.27;8.00;;;18.40;99.90;;;;;;5076516;28;20116;-51
2022/09/08 06:42:50;;;;;;;19.00;8.43;;;18.40;99.90;;;;;;5072341;28;20031;-49
2022/09/08 06:45:26;;;;;;;9.93;8.07;;;18.40;99.90;;;;;;5071467;28;20109;-50
2022/09/08 06:48:04;;;;;;;15.32;9.20;;;18.40;99.90;;;;;;5070935;28;20029;-52
2022/09/08 06:50:33;;;;;;;12.45;8.40;;;18.50;99.90;;;;;;5072514;28;20036;-50
2022/09/08 06:53:06;;;;;;;9.60;7.72;;;18.60;99.90;;;;;;5072712;28;20055;-50
2022/09/08 06:55:50;;;;;;;9.95;7.95;;;18.60;99.90;;;;;;5072617;28;20212;-51
2022/09/08 06:58:29;;;;;;;11.02;7.55;;;18.60;99.90;;;;;;5072767;28;20107;-50
2022/09/08 07:01:13;;;;;;;12.80;7.43;;;18.60;99.90;;;;;;5072783;28;20339;-53
2022/09/08 07:04:08;;;;;;;12.10;6.85;;;18.60;99.90;;;;;;5072569;28;20036;-52
2022/09/08 07:06:53;;;;;;;22.98;7.35;;;18.60;99.90;;;;;;5072318;28;20461;-49
2022/09/08 07:09:28;;;;;;;12.40;7.97;;;18.70;99.90;;;;;;5072467;28;20043;-52
2022/09/08 07:12:17;;;;;;;8.82;7.70;;;18.60;99.90;;;;;;5072570;28;20075;-49
2022/09/08 07:14:51;;;;;;;9.30;7.75;;;18.60;99.90;;;;;;5084557;28;20077;-53
2022/09/08 07:17:36;;;;;;;10.38;7.20;;;18.60;99.90;;;;;;5092289;28;20387;-52
2022/09/08 07:20:08;;;;;;;12.27;7.88;;;18.70;99.90;;;;;;5092550;28;20036;-49
2022/09/08 07:22:57;;;;;;;11.30;7.22;;;18.70;99.90;;;;;;5090617;28;20513;-52
2022/09/08 07:25:38;;;;;;;10.35;7.70;;;18.80;99.90;;;;;;5088966;28;20047;-52
2022/09/08 07:28:09;;;;;;;9.73;6.78;;;18.70;99.90;;;;;;5092231;28;20027;-50
2022/09/08 07:30:36;;;;;;;9.35;6.85;;;18.80;99.90;;;;;;5091536;28;20070;-50
2022/09/08 07:33:11;;;;;;;16.13;7.47;;;18.90;99.90;;;;;;5079860;28;20028;-51
2022/09/08 07:35:50;;;;;;;11.70;7.07;;;19.10;99.90;;;;;;5072155;28;20025;-51
2022/09/08 07:38:26;;;;;;;8.82;5.95;;;18.90;99.90;;;;;;5071703;28;20116;-50
2022/09/08 07:40:56;;;;;;;13.27;6.45;;;18.90;99.90;;;;;;5071805;28;20029;-51
2022/09/08 07:43:24;;;;;;;11.60;7.75;;;18.70;99.90;;;;;;5072049;28;20028;-51
2022/09/08 07:46:01;;;;;;;11.80;6.70;;;18.70;99.90;;;;;;5079560;28;20023;-53
2022/09/08 07:49:25;;;;;;;12.65;6.88;;;18.80;99.90;;;;;;5091648;28;20027;-53
2022/09/08 07:52:20;;;;;;;7.68;6.47;;;18.90;99.90;;;;;;5079178;28;20036;-53
2022/09/08 07:54:54;;;;;;;16.02;7.22;;;18.80;99.90;;;;;;5065823;28;20451;-52
2022/09/08 07:57:39;;;;;;;10.20;7.00;;;18.80;99.90;;;;;;5082392;28;20033;-51
2022/09/08 08:00:30;;;;;;;9.23;6.70;;;18.90;99.90;;;;;;5069659;28;20031;-50
2022/09/08 08:03:10;;;;;;;18.00;5.97;;;18.90;99.90;;;;;;5081390;28;20024;-54
2022/09/08 08:05:42;;;;;;;7.45;5.22;;;18.70;99.90;;;;;;5089785;28;20027;-52
2022/09/08 08:08:16;;;;;;;11.60;5.80;;;18.80;99.90;;;;;;5085500;28;20110;-51
2022/09/08 08:11:03;;;;;;;12.63;6.47;;;18.70;99.90;;;;;;5069546;28;20017;-50
2022/09/08 08:13:56;;;;;;;11.63;6.88;;;18.70;99.90;;;;;;5069746;28;20028;-50
2022/09/08 08:16:48;;;;;;;8.27;5.50;;;18.80;99.90;;;;;;5089629;28;20054;-51
2022/09/08 08:19:32;;;;;;;10.02;5.35;;;18.70;99.90;;;;;;5071274;28;20040;-50
2022/09/08 08:22:05;;;;;;;6.95;5.57;;;18.70;99.90;;;;;;5072103;28;20024;-54
2022/09/08 08:24:30;;;;;;;7.18;5.22;;;18.80;99.90;;;;;;5083146;28;20039;-51
2022/09/08 08:27:06;;;;;;;6.45;4.50;;;18.70;99.90;;;;;;5071072;28;20028;-53
2022/09/08 08:29:46;;;;;;;8.45;4.22;;;18.80;99.90;;;;;;5087539;28;20031;-51
2022/09/08 08:32:21;;;;;;;6.20;3.75;;;18.90;99.90;;;;;;5082500;28;20383;-54
2022/09/08 08:35:19;;;;;;;10.55;4.63;;;18.90;99.90;;;;;;5072102;28;20383;-49
2022/09/08 08:37:49;;;;;;;5.30;3.75;;;18.90;99.90;;;;;;5070717;28;20021;-53
2022/09/08 08:40:48;;;;;;;7.13;4.50;;;19.00;99.90;;;;;;5070544;28;20032;-50
2022/09/08 08:43:22;;;;;;;6.93;4.15;;;18.90;99.90;;;;;;5071776;28;20039;-51
2022/09/08 08:46:15;;;;;;;6.35;3.67;;;19.10;99.90;;;;;;5088689;28;20483;-51
2022/09/08 08:48:47;;;;;;;6.82;3.90;;;19.20;99.90;;;;;;5086474;28;20333;-54
2022/09/08 08:51:28;;;;;;;11.05;4.30;;;19.20;99.90;;;;;;5071591;28;20020;-53
2022/09/08 08:54:03;;;;;;;5.70;3.65;;;18.80;99.90;;;;;;5071790;28;20024;-53
2022/09/08 08:56:30;;;;;;;5.75;3.00;;;18.80;99.90;;;;;;5070225;28;20023;-53
2022/09/08 08:59:43;;;;;;;3.70;2.70;;;18.80;99.90;;;;;;5070572;28;20143;-53
2022/09/08 09:02:30;;;;;;;3.45;2.00;;;18.80;99.90;;;;;;5055265;28;20131;-50
2022/09/08 09:05:05;;;;;;;5.22;1.80;;;18.60;99.90;;;;;;5090047;28;20024;-50
2022/09/08 09:08:04;;;;;;;3.97;1.52;;;18.40;99.90;;;;;;5089765;28;20055;-50
2022/09/08 09:10:49;;;;;;;2.40;1.40;;;18.30;99.90;;;;;;5050323;28;20029;-52
2022/09/08 09:13:24;;;;;;;8.15;2.10;;;18.30;99.90;;;;;;5085799;28;20027;-52
2022/09/08 09:16:16;;;;;;;5.80;2.00;;;18.20;99.90;;;;;;5071695;28;20024;-51
2022/09/08 09:19:03;;;;;;;4.60;1.85;;;18.10;99.90;;;;;;5069925;28;20094;-51
2022/09/08 09:21:44;;;;;;;2.00;1.80;;;18.00;99.90;;;;;;5064545;28;20036;-51
2022/09/08 09:24:31;;;;;;;2.13;1.60;;;17.90;99.90;;;;;;5071303;28;20048;-51
2022/09/08 09:26:58;;;;;;;7.40;2.17;;;17.80;99.90;;;;;;5089261;28;20164;-50
2022/09/08 09:29:25;;;;;;;4.72;2.03;;;17.90;99.90;;;;;;5089968;28;20251;-52
2022/09/08 09:32:25;;;;;;;6.53;2.28;;;17.80;99.90;;;;;;5082724;28;20107;-50
2022/09/08 09:34:59;;;;;;;2.28;1.83;;;17.80;99.90;;;;;;5070033;28;20100;-52
2022/09/08 09:37:27;;;;;;;2.40;1.70;;;17.70;99.90;;;;;;5070035;28;20028;-54
2022/09/08 09:40:11;;;;;;;3.15;2.22;;;17.60;99.90;;;;;;5070085;28;20418;-52
2022/09/08 09:43:07;;;;;;;4.38;1.92;;;17.60;99.90;;;;;;5069802;28;20036;-51
2022/09/08 09:45:46;;;;;;;3.10;1.95;;;17.60;99.90;;;;;;5069875;28;20707;-50
2022/09/08 09:48:26;;;;;;;3.17;2.17;;;17.70;99.90;;;;;;5070455;28;20029;-51
2022/09/08 09:50:57;;;;;;;2.65;2.08;;;17.60;99.90;;;;;;5085880;28;20115;-52
2022/09/08 09:53:26;;;;;;;2.38;1.90;;;17.60;99.90;;;;;;5089593;28;20052;-50
2022/09/08 09:56:11;;;;;;;2.50;2.30;;;17.70;99.90;;;;;;5078629;28;20050;-53
2022/09/08 09:58:57;;;;;;;2.15;1.80;;;17.70;99.90;;;;;;5068407;28;20032;-52
2022/09/08 10:01:23;;;;;;;6.68;2.85;;;17.80;99.90;;;;;;5054642;28;20048;-52
2022/09/08 10:04:13;;;;;;;4.00;2.20;;;17.70;99.90;;;;;;5089966;28;20060;-50
2022/09/08 10:06:56;;;;;;;2.15;1.95;;;17.60;99.90;;;;;;5089856;28;20020;-50
2022/09/08 10:09:25;;;;;;;3.10;1.52;;;17.60;99.90;;;;;;5089578;28;20137;-52
2022/09/08 10:12:28;;;;;;;1.90;1.58;;;17.50;99.90;;;;;;5089264;28;20070;-53
2022/09/08 10:15:31;;;;;;;6.93;1.50;;;17.50;99.90;;;;;;5089955;28;20020;-54
2022/09/08 10:18:00;;;;;;;2.28;1.50;;;17.40;99.90;;;;;;5093355;28;20092;-50
2022/09/08 10:20:49;;;;;;;2.92;1.30;;;17.20;99.90;;;;;;5091721;28;20024;-52
2022/09/08 10:23:36;;;;;;;2.20;1.52;;;17.30;99.90;;;;;;5067147;28;20024;-51
2022/09/08 10:26:35;;;;;;;5.78;1.35;;;17.30;99.90;;;;;;5074145;28;20039;-52
2022/09/08 10:29:07;;;;;;;5.45;1.85;;;17.20;99.90;;;;;;5068718;28;20483;-52
2022/09/08 10:32:10;;;;;;;3.10;1.55;;;17.10;99.90;;;;;;5076212;28;20475;-50
2022/09/08 10:34:51;;;;;;;3.83;1.60;;;17.00;99.90;;;;;;5072950;28;20032;-53
2022/09/08 10:37:47;;;;;;;1.98;1.30;;;16.90;99.90;;;;;;5083423;28;20035;-51
2022/09/08 10:40:31;;;;;;;4.82;1.73;;;17.00;99.90;;;;;;5093592;28;20020;-53
2022/09/08 10:43:15;;;;;;;;;;;17.10;99.90;;;;;;5093523;28;20054;-50
2022/09/08 10:45:59;;;;;;;2.63;1.50;;;17.20;99.90;;;;;;5093080;28;19923;-49
2022/09/08 10:49:01;;;;;;;1.60;1.50;;;17.30;99.90;;;;;;5092624;28;20020;-50
2022/09/08 10:51:36;;;;;;;1.40;1.30;;;17.40;99.90;;;;;;5092553;28;20043;-51
2022/09/08 10:54:39;;;;;;;2.35;1.85;;;17.50;99.90;;;;;;5088227;28;20024;-52
2022/09/08 10:57:26;;;;;;;4.13;1.80;;;17.60;99.90;;;;;;5088463;28;20024;-50
2022/09/08 11:00:18;;;;;;;2.55;1.42;;;17.50;99.90;;;;;;5086118;28;20024;-52
2022/09/08 11:03:02;;;;;;;1.38;1.27;;;17.50;99.90;;;;;;5089395;28;20089;-49
2022/09/08 11:05:33;;;;;;;;;;;17.50;99.90;;;;;;5093186;28;20024;-50
2022/09/08 11:08:32;;;;;;;2.13;1.40;;;17.40;99.90;;;;;;5092035;28;19916;-51
2022/09/08 11:11:36;;;;;;;2.13;1.30;;;17.40;99.90;;;;;;5092596;28;20379;-54
2022/09/08 11:14:11;;;;;;;;;;;17.40;99.90;;;;;;5092847;28;20076;-51
2022/09/08 11:17:04;;;;;;;2.63;1.27;;;17.40;99.90;;;;;;5092103;28;19935;-51
2022/09/08 11:19:40;;;;;;;3.28;1.52;;;17.30;99.90;;;;;;5092421;28;20440;-51
2022/09/08 11:22:23;;;;;;;1.48;1.38;;;17.30;99.90;;;;;;5090965;28;20032;-53
2022/09/08 11:25:16;;;;;;;1.38;1.10;;;17.20;99.90;;;;;;5090434;28;20039;-51
2022/09/08 11:28:06;;;;;;;2.55;1.20;;;17.20;99.90;;;;;;5071525;28;20436;-53
2022/09/08 11:31:03;;;;;;;2.10;1.20;;;17.10;99.90;;;;;;5072068;28;20035;-50
2022/09/08 11:33:40;;;;;;;1.27;0.90;;;17.20;99.90;;;;;;5076790;28;20043;-50
2022/09/08 11:36:30;;;;;;;1.30;1.20;;;17.20;99.90;;;;;;5072271;28;20430;-50
2022/09/08 11:39:22;;;;;;;0.90;0.90;;;17.20;99.90;;;;;;5072112;28;20108;-51
2022/09/08 11:41:54;;;;;;;1.98;1.27;;;17.20;99.90;;;;;;5072001;28;20028;-52
2022/09/08 11:44:34;;;;;;;1.48;1.38;;;17.20;99.90;;;;;;5071858;28;20025;-55
2022/09/08 11:47:23;;;;;;;1.10;1.10;;;17.00;99.90;;;;;;5070335;28;20070;-53
2022/09/08 11:50:18;;;;;;;3.70;1.20;;;17.00;99.90;;;;;;5071602;28;20403;-53
2022/09/08 11:53:17;;;;;;;2.28;1.30;;;17.00;99.90;;;;;;5056067;28;20079;-52
2022/09/08 11:56:01;;;;;;;1.33;1.00;;;17.10;99.90;;;;;;5071589;28;20036;-54
2022/09/08 11:58:43;;;;;;;8.57;1.60;;;17.10;99.90;;;;;;5071517;28;20387;-50
2022/09/08 12:01:23;;;;;;;2.25;1.30;;;17.00;99.90;;;;;;5071587;28;20070;-53
2022/09/08 12:04:10;;;;;;;2.42;1.42;;;17.00;99.90;;;;;;5071397;28;20035;-53
2022/09/08 12:07:04;;;;;;;5.28;1.75;;;17.10;99.90;;;;;;5071300;28;20395;-52
2022/09/08 12:10:04;;;;;;;2.97;1.27;;;17.20;99.90;;;;;;5071194;28;20033;-49
2022/09/08 12:12:54;;;;;;;1.88;1.10;;;17.30;99.90;;;;;;5071224;28;20049;-51
2022/09/08 12:15:38;;;;;;;3.40;1.70;;;17.40;99.90;;;;;;5072374;28;20442;-54
2022/09/08 12:18:39;;;;;;;2.22;1.15;;;17.50;99.90;;;;;;5070772;28;20024;-50
2022/09/08 12:21:41;;;;;;;2.92;0.93;;;17.40;99.90;;;;;;5070945;28;20323;-52
2022/09/08 12:24:32;;;;;;;1.52;0.98;;;17.60;99.90;;;;;;5061953;28;20097;-50
2022/09/08 12:26:57;;;;;;;3.47;1.00;;;17.50;99.90;;;;;;5070539;28;20360;-51
2022/09/08 12:29:51;;;;;;;1.83;0.93;;;17.60;99.90;;;;;;5069968;28;20024;-50
2022/09/08 12:32:41;;;;;;;1.30;0.90;;;17.70;99.90;;;;;;5071287;28;20100;-52
2022/09/08 12:35:21;;;;;;;1.13;1.00;;;17.70;99.90;;;;;;5073784;28;20019;-51
2022/09/08 12:38:11;;;;;;;3.20;1.55;;;17.50;99.90;;;;;;5070017;28;20039;-49
2022/09/08 12:40:55;;;;;;;1.17;0.90;;;17.30;99.90;;;;;;5069300;28;20020;-51
2022/09/08 12:43:23;;;;;;;0.90;0.90;;;17.20;99.90;;;;;;5070585;28;20580;-54
2022/09/08 12:46:10;;;;;;;4.47;1.00;;;17.10;99.90;;;;;;5082959;28;20107;-49
2022/09/08 12:49:15;;;;;;;0.90;0.90;;;17.00;99.90;;;;;;5070615;28;20048;-49
2022/09/08 12:51:40;;;;;;;1.92;1.20;;;16.80;99.90;;;;;;5086532;28;20114;-52
2022/09/08 12:54:34;;;;;;;1.65;1.08;;;16.80;99.90;;;;;;5090754;28;20387;-53
2022/09/08 12:57:11;;;;;;;1.17;1.08;;;16.80;99.90;;;;;;5090946;28;20107;-52
2022/09/08 13:00:31;;;;;;;5.97;1.10;;;16.80;99.90;;;;;;5090506;28;20051;-50
2022/09/08 13:03:22;;;;;;;1.80;1.02;;;16.80;99.90;;;;;;5019290;28;20026;-50
2022/09/08 13:06:00;;;;;;;0.77;0.77;;;16.70;99.90;;;;;;5068325;28;20040;-49
2022/09/08 13:08:44;;;;;;;4.25;1.50;;;16.60;99.90;;;;;;5070027;28;20399;-51
2022/09/08 13:11:37;;;;;;;2.30;1.25;;;16.60;99.90;;;;;;5070362;28;20016;-48
2022/09/08 13:14:09;;;;;;;4.20;0.90;;;16.50;99.90;;;;;;5070287;28;20024;-49
2022/09/08 13:16:43;;;;;;;4.97;1.05;;;16.50;99.90;;;;;;5070267;28;20052;-49
2022/09/08 13:19:15;;;;;;;1.10;1.00;;;16.40;99.90;;;;;;5070321;28;20481;-51
2022/09/08 13:21:59;;;;;;;1.40;1.30;;;16.40;99.90;;;;;;5083896;28;20173;-50
2022/09/08 13:24:31;;;;;;;8.05;1.10;;;16.50;99.90;;;;;;5090418;28;20028;-51
2022/09/08 13:27:07;;;;;;;2.83;1.15;;;16.50;99.90;;;;;;5086920;28;20085;-50